createdAt,value
2022-08-10T00:00:22.943Z,6.45
2022-08-10T00:02:25.000Z,6.55
2022-08-10T00:04:27.055Z,6.93
2022-08-10T00:06:29.312Z,6.50
2022-08-10T00:08:31.358Z,6.18
2022-08-10T00:10:33.421Z,5.70
2022-08-10T00:12:54.299Z,7.95
2022-08-10T00:14:57.063Z,6.95
2022-08-10T00:16:59.048Z,9.85
2022-08-10T00:19:01.095Z,6.57
2022-08-10T00:21:05.405Z,8.80
2022-08-10T00:23:07.477Z,5.82
2022-08-10T00:25:09.645Z,6.10
2022-08-10T00:27:58.542Z,6.22
2022-08-10T00:29:33.627Z,5.95
2022-08-10T00:31:58.709Z,4.72
2022-08-10T00:33:57.578Z,4.90
2022-08-10T00:35:59.577Z,6.07
2022-08-10T00:38:01.576Z,6.57
2022-08-10T00:40:05.606Z,6.85
2022-08-10T00:42:08.782Z,7.18
2022-08-10T00:44:10.780Z,4.82
2022-08-10T00:46:12.752Z,10.48
2022-08-10T00:48:14.750Z,7.80
2022-08-10T00:50:18.203Z,6.82
2022-08-10T00:52:20.269Z,6.32
2022-08-10T00:54:24.467Z,9.32
2022-08-10T00:57:14.485Z,10.10
2022-08-10T00:58:49.534Z,5.45
2022-08-10T01:00:51.517Z,7.70
2022-08-10T01:02:53.696Z,7.10
2022-08-10T01:05:00.924Z,6.95
2022-08-10T01:07:53.299Z,7.78
2022-08-10T01:10:28.403Z,9.70
2022-08-10T01:13:11.535Z,10.98
2022-08-10T01:15:29.775Z,10.68
2022-08-10T01:17:54.334Z,11.40
2022-08-10T01:20:30.064Z,7.05
2022-08-10T01:23:25.846Z,7.95
2022-08-10T01:26:12.046Z,7.22
2022-08-10T01:28:55.219Z,9.18
2022-08-10T01:30:58.206Z,5.53
2022-08-10T01:33:57.987Z,7.90
2022-08-10T01:35:58.042Z,8.50
2022-08-10T01:38:10.904Z,10.00
2022-08-10T01:40:13.847Z,13.68
2022-08-10T01:42:19.210Z,11.18
2022-08-10T01:44:40.206Z,9.80
2022-08-10T01:46:46.860Z,9.15
2022-08-10T01:48:51.552Z,10.50
2022-08-10T01:51:02.743Z,9.98
2022-08-10T01:53:14.025Z,9.23
2022-08-10T01:55:16.054Z,9.68
2022-08-10T01:57:18.102Z,8.68
2022-08-10T01:59:33.166Z,11.82
2022-08-10T02:01:52.360Z,11.30
2022-08-10T02:04:05.019Z,10.82
2022-08-10T02:06:07.885Z,10.02
2022-08-10T02:08:15.752Z,9.60
2022-08-10T02:10:19.325Z,11.27
2022-08-10T02:12:24.729Z,9.75
2022-08-10T02:14:45.236Z,9.88
2022-08-10T02:16:50.613Z,9.85
2022-08-10T02:18:53.804Z,10.80
2022-08-10T02:20:55.792Z,9.68
2022-08-10T02:23:03.677Z,9.35
2022-08-10T02:25:09.165Z,9.25
2022-08-10T02:27:14.485Z,10.07
2022-08-10T02:29:16.974Z,13.85
2022-08-10T02:31:22.300Z,8.60
2022-08-10T02:33:26.675Z,10.23
2022-08-10T02:35:33.491Z,9.68
2022-08-10T02:37:52.959Z,9.35
2022-08-10T02:39:54.984Z,8.90
2022-08-10T02:45:02.364Z,10.85
2022-08-10T02:45:29.406Z,7.72
2022-08-10T02:47:51.528Z,10.43
2022-08-10T02:50:27.325Z,11.25
2022-08-10T02:52:52.716Z,16.67
2022-08-10T02:55:17.839Z,13.00
2022-08-10T02:57:24.881Z,15.68
2022-08-10T02:59:39.873Z,12.10
2022-08-10T03:01:46.424Z,12.27
2022-08-10T03:04:08.280Z,16.27
2022-08-10T03:06:14.447Z,9.70
2022-08-10T03:08:19.400Z,13.55
2022-08-10T03:10:27.696Z,12.90
2022-08-10T03:12:37.131Z,13.38
2022-08-10T03:14:40.513Z,14.77
2022-08-10T03:16:42.592Z,10.65
2022-08-10T03:18:44.606Z,13.75
2022-08-10T03:20:46.616Z,13.40
2022-08-10T03:22:52.274Z,13.98
2022-08-10T03:24:54.305Z,10.30
2022-08-10T03:26:56.280Z,16.38
2022-08-10T03:29:03.805Z,15.85
2022-08-10T03:31:05.895Z,18.13
2022-08-10T03:33:07.998Z,13.50
2022-08-10T03:35:10.127Z,12.23
2022-08-10T03:37:12.115Z,12.23
2022-08-10T03:39:14.260Z,11.95
2022-08-10T03:41:16.716Z,19.15
2022-08-10T03:43:21.067Z,18.73
2022-08-10T03:45:23.094Z,18.20
2022-08-10T03:47:25.106Z,12.20
2022-08-10T03:49:28.008Z,13.23
2022-08-10T03:51:30.197Z,13.85
2022-08-10T03:54:03.193Z,11.75
2022-08-10T03:56:28.289Z,13.05
2022-08-10T03:58:16.166Z,12.10
2022-08-10T04:00:20.803Z,14.05
2022-08-10T04:02:44.141Z,12.02
2022-08-10T04:04:45.072Z,14.40
2022-08-10T04:06:47.108Z,11.75
2022-08-10T04:08:53.355Z,22.15
2022-08-10T04:10:55.505Z,15.32
2022-08-10T04:12:58.950Z,16.25
2022-08-10T04:15:01.066Z,14.50
2022-08-10T04:17:03.053Z,12.48
2022-08-10T04:19:05.122Z,16.38
2022-08-10T04:21:19.357Z,14.50
2022-08-10T04:23:26.598Z,16.27
2022-08-10T04:25:28.601Z,15.20
2022-08-10T04:27:30.621Z,16.38
2022-08-10T04:29:32.597Z,14.80
2022-08-10T04:31:34.639Z,16.67
2022-08-10T04:33:37.918Z,16.80
2022-08-10T04:35:39.892Z,17.58
2022-08-10T04:37:43.420Z,16.25
2022-08-10T04:39:49.711Z,17.38
2022-08-10T04:41:51.783Z,16.35
2022-08-10T04:43:53.794Z,21.27
2022-08-10T04:45:55.863Z,20.48
2022-08-10T04:48:03.029Z,18.50
2022-08-10T04:50:05.930Z,19.27
2022-08-10T04:54:13.040Z,18.80
2022-08-10T04:56:17.796Z,17.90
2022-08-10T04:58:19.990Z,23.02
2022-08-10T05:00:22.003Z,19.55
2022-08-10T05:02:29.008Z,17.23
2022-08-10T05:04:38.310Z,17.23
2022-08-10T05:06:41.227Z,18.63
2022-08-10T05:08:43.244Z,18.30
2022-08-10T05:10:45.214Z,13.57
2022-08-10T05:12:47.328Z,17.15
2022-08-10T05:14:49.407Z,14.45
2022-08-10T05:16:51.411Z,12.52
2022-08-10T05:18:53.379Z,21.40
2022-08-10T05:20:55.394Z,11.90
2022-08-10T05:22:57.440Z,14.32
2022-08-10T05:24:59.433Z,14.30
2022-08-10T05:27:09.988Z,12.93
2022-08-10T05:29:12.546Z,11.73
2022-08-10T05:31:17.755Z,16.60
2022-08-10T05:33:25.952Z,11.07
2022-08-10T05:35:51.762Z,13.10
2022-08-10T05:38:13.346Z,12.30
2022-08-10T05:40:14.146Z,10.80
2022-08-10T05:42:17.931Z,11.40
2022-08-10T05:44:23.044Z,10.57
2022-08-10T05:46:25.047Z,14.20
2022-08-10T05:48:57.769Z,9.43
2022-08-10T05:50:49.191Z,10.18
2022-08-10T05:52:51.199Z,9.50
2022-08-10T05:54:53.209Z,9.02
2022-08-10T05:56:58.251Z,9.50
2022-08-10T05:59:00.506Z,8.43
2022-08-10T06:01:08.039Z,9.30
2022-08-10T06:03:10.026Z,12.05
2022-08-10T06:05:23.886Z,12.50
2022-08-10T06:07:27.483Z,11.77
2022-08-10T06:09:30.540Z,10.85
2022-08-10T06:12:35.190Z,8.25
2022-08-10T06:14:16.610Z,9.90
2022-08-10T06:16:21.509Z,10.90
2022-08-10T06:18:24.317Z,7.53
2022-08-10T06:20:26.288Z,12.20
2022-08-10T06:22:33.532Z,7.90
2022-08-10T06:24:50.969Z,9.73
2022-08-10T06:27:00.128Z,7.88
2022-08-10T06:29:13.957Z,14.93
2022-08-10T06:31:15.970Z,9.65
2022-08-10T06:33:21.073Z,9.00
2022-08-10T06:35:25.481Z,7.93
2022-08-10T06:37:29.385Z,8.27
2022-08-10T06:39:34.433Z,6.07
2022-08-10T06:41:58.067Z,6.50
2022-08-10T06:44:11.476Z,7.40
2022-08-10T06:46:16.377Z,13.38
2022-08-10T06:48:41.926Z,6.78
2022-08-10T06:50:58.648Z,5.20
2022-08-10T06:53:02.014Z,6.22
2022-08-10T06:55:05.371Z,10.35
2022-08-10T06:57:17.745Z,4.43
2022-08-10T06:59:22.139Z,8.75
2022-08-10T07:01:30.199Z,6.80
2022-08-10T07:03:37.028Z,7.57
2022-08-10T07:05:43.493Z,8.50
2022-08-10T07:07:47.363Z,8.02
2022-08-10T07:09:49.540Z,8.57
2022-08-10T07:11:51.544Z,8.88
2022-08-10T07:14:16.504Z,9.07
2022-08-10T07:16:18.866Z,7.70
2022-08-10T07:18:20.834Z,11.05
2022-08-10T07:20:22.955Z,6.40
2022-08-10T07:23:27.373Z,4.82
2022-08-10T07:24:50.622Z,9.55
2022-08-10T07:26:54.893Z,9.55
2022-08-10T07:28:56.934Z,5.38
2022-08-10T07:30:58.949Z,5.50
2022-08-10T07:33:01.745Z,4.32
2022-08-10T07:35:04.012Z,6.85
2022-08-10T07:37:08.111Z,5.45
2022-08-10T07:39:10.354Z,6.30
2022-08-10T07:41:12.482Z,3.72
2022-08-10T07:43:19.321Z,5.03
2022-08-10T07:45:21.398Z,6.72
2022-08-10T07:47:52.956Z,5.00
2022-08-10T07:49:54.100Z,4.63
2022-08-10T07:51:57.288Z,6.45
2022-08-10T07:54:01.994Z,6.30
2022-08-10T07:56:16.951Z,4.53
2022-08-10T07:58:30.383Z,10.23
2022-08-10T08:00:32.450Z,6.75
2022-08-10T08:02:55.649Z,7.75
2022-08-10T08:07:10.408Z,9.53
2022-08-10T08:09:15.686Z,5.30
2022-08-10T08:11:26.090Z,4.30
2022-08-10T08:13:28.835Z,3.97
2022-08-10T08:16:19.281Z,5.75
2022-08-10T08:18:00.525Z,6.20
2022-08-10T08:20:03.150Z,5.13
2022-08-10T08:24:09.714Z,4.35
2022-08-10T08:24:32.773Z,3.55
2022-08-10T08:26:37.134Z,9.70
2022-08-10T08:28:39.119Z,4.72
2022-08-10T08:30:43.546Z,4.50
2022-08-10T08:32:48.982Z,4.35
2022-08-10T08:35:04.130Z,4.97
2022-08-10T08:37:07.569Z,6.15
2022-08-10T08:39:11.026Z,8.20
2022-08-10T08:41:43.794Z,2.97
2022-08-10T08:43:56.718Z,1.63
2022-08-10T08:49:08.398Z,3.80
2022-08-10T08:52:08.002Z,3.03
2022-08-10T08:54:51.273Z,3.55
2022-08-10T08:57:22.836Z,2.75
2022-08-10T09:00:11.092Z,4.53
2022-08-10T09:02:55.087Z,5.90
2022-08-10T09:05:22.766Z,6.55
2022-08-10T09:08:01.576Z,2.95
2022-08-10T09:10:37.735Z,2.33
2022-08-10T09:13:10.403Z,2.25
2022-08-10T09:15:58.663Z,3.37
2022-08-10T09:18:05.089Z,5.72
2022-08-10T09:20:51.593Z,4.13
2022-08-10T09:23:01.743Z,4.60
2022-08-10T09:25:21.952Z,3.83
2022-08-10T09:27:35.685Z,3.13
2022-08-10T09:29:45.192Z,4.63
2022-08-10T09:33:05.983Z,3.15
2022-08-10T09:36:25.556Z,5.72
2022-08-10T09:37:39.270Z,4.68
2022-08-10T09:40:56.326Z,3.42
2022-08-10T09:42:53.087Z,2.67
2022-08-10T09:45:37.572Z,3.50
2022-08-10T09:48:07.010Z,3.80
2022-08-10T09:50:21.776Z,4.20
2022-08-10T09:52:59.150Z,4.07
2022-08-10T09:56:17.953Z,4.40
2022-08-10T09:58:20.754Z,1.88
2022-08-10T10:00:35.626Z,2.30
2022-08-10T10:03:10.403Z,2.55
2022-08-10T10:05:50.295Z,3.08
2022-08-10T10:08:24.559Z,3.88
2022-08-10T10:10:35.653Z,2.65
2022-08-10T10:12:57.033Z,4.95
2022-08-10T10:15:24.000Z,5.65
2022-08-10T10:17:42.493Z,9.23
2022-08-10T10:20:11.441Z,11.23
2022-08-10T10:22:22.061Z,2.40
2022-08-10T10:24:51.290Z,1.55
2022-08-10T10:27:32.202Z,5.25
2022-08-10T10:30:01.214Z,2.20
2022-08-10T10:32:36.541Z,4.40
2022-08-10T10:35:01.818Z,2.47
2022-08-10T10:37:06.625Z,3.97
2022-08-10T10:39:08.697Z,4.82
2022-08-10T10:41:30.233Z,2.50
2022-08-10T10:44:10.236Z,3.20
2022-08-10T10:46:44.765Z,4.50
2022-08-10T10:49:13.824Z,3.22
2022-08-10T10:51:25.680Z,5.90
2022-08-10T10:54:16.546Z,2.67
2022-08-10T10:56:45.141Z,3.10
2022-08-10T10:59:53.905Z,2.45
2022-08-10T11:01:54.788Z,3.67
2022-08-10T11:04:04.506Z,4.78
2022-08-10T11:06:48.108Z,4.30
2022-08-10T11:08:55.703Z,12.20
2022-08-10T11:12:00.459Z,9.32
2022-08-10T11:14:29.096Z,5.15
2022-08-10T11:16:39.129Z,5.97
2022-08-10T11:19:20.193Z,5.20
2022-08-10T11:21:50.694Z,7.13
2022-08-10T11:24:50.483Z,9.70
2022-08-10T11:27:22.312Z,2.53
2022-08-10T11:31:59.217Z,7.43
2022-08-10T11:34:48.976Z,5.90
2022-08-10T11:37:05.486Z,2.42
2022-08-10T11:39:19.847Z,3.80
2022-08-10T11:42:07.981Z,8.23
2022-08-10T11:43:57.495Z,2.40
2022-08-10T11:46:28.439Z,2.20
2022-08-10T11:48:53.922Z,1.83
2022-08-10T11:51:00.214Z,5.10
2022-08-10T11:53:22.521Z,3.72
2022-08-10T11:55:33.015Z,5.05
2022-08-10T11:57:53.397Z,4.20
2022-08-10T11:59:57.968Z,2.25
2022-08-10T12:02:00.727Z,3.17
2022-08-10T12:04:07.613Z,2.47
2022-08-10T12:06:39.244Z,2.47
2022-08-10T12:10:06.365Z,2.72
2022-08-10T12:11:05.762Z,2.25
2022-08-10T12:13:26.719Z,3.88
2022-08-10T12:15:35.756Z,3.67
2022-08-10T12:17:52.057Z,2.88
2022-08-10T12:20:09.944Z,2.78
2022-08-10T12:22:14.963Z,2.35
2022-08-10T12:24:26.239Z,2.83
2022-08-10T12:26:48.885Z,3.08
2022-08-10T12:29:27.529Z,4.93
2022-08-10T12:31:45.883Z,7.15
2022-08-10T12:34:24.200Z,4.05
2022-08-10T12:36:33.709Z,2.85
2022-08-10T12:39:07.263Z,1.77
2022-08-10T12:41:49.958Z,2.60
2022-08-10T12:44:19.313Z,2.58
2022-08-10T12:46:41.473Z,1.33
2022-08-10T12:49:14.415Z,2.03
2022-08-10T12:51:35.655Z,1.63
2022-08-10T12:54:14.298Z,3.35
2022-08-10T12:56:33.949Z,3.47
2022-08-10T13:01:16.468Z,1.60
2022-08-10T13:04:21.365Z,1.40
2022-08-10T13:05:54.741Z,2.05
2022-08-10T13:08:27.195Z,3.38
2022-08-10T13:10:30.098Z,2.38
2022-08-10T13:12:39.877Z,3.47
2022-08-10T13:14:47.645Z,2.60
2022-08-10T13:16:49.696Z,2.55
2022-08-10T13:18:51.802Z,2.03
2022-08-10T13:20:56.198Z,2.05
2022-08-10T13:23:00.131Z,1.90
2022-08-10T13:25:03.961Z,6.93
2022-08-10T13:27:25.752Z,2.80
2022-08-10T13:29:38.750Z,2.05
2022-08-10T13:32:04.525Z,5.35
2022-08-10T13:34:42.838Z,2.10
2022-08-10T13:36:38.156Z,2.20
2022-08-10T13:38:41.049Z,4.87
2022-08-10T13:40:43.041Z,2.17
2022-08-10T13:42:45.103Z,1.77
2022-08-10T13:44:54.782Z,8.35
2022-08-10T13:46:56.940Z,2.10
2022-08-10T13:48:59.039Z,1.80
2022-08-10T13:51:02.740Z,2.17
2022-08-10T13:53:14.912Z,2.20
2022-08-10T13:55:17.685Z,2.15
2022-08-10T13:57:29.913Z,2.03
2022-08-10T14:00:33.000Z,2.88
2022-08-10T14:01:55.778Z,2.08
2022-08-10T14:03:58.427Z,3.33
2022-08-10T14:06:00.437Z,4.03
2022-08-10T14:08:03.574Z,11.60
2022-08-10T14:10:11.086Z,1.88
2022-08-10T14:12:13.086Z,3.88
2022-08-10T14:14:17.766Z,4.38
2022-08-10T14:16:19.835Z,7.40
2022-08-10T14:18:21.884Z,2.33
2022-08-10T14:20:33.837Z,2.20
2022-08-10T14:22:36.559Z,1.90
2022-08-10T14:24:38.588Z,1.80
2022-08-10T14:26:40.760Z,7.05
2022-08-10T14:28:50.430Z,6.32
2022-08-10T14:31:06.586Z,2.40
2022-08-10T14:33:08.663Z,3.67
2022-08-10T14:36:19.218Z,1.90
2022-08-10T14:37:42.340Z,3.55
2022-08-10T14:39:48.820Z,7.43
2022-08-10T14:42:03.854Z,2.33
2022-08-10T14:44:11.790Z,1.67
2022-08-10T14:46:19.960Z,3.03
2022-08-10T14:48:32.891Z,2.85
2022-08-10T14:50:35.211Z,9.73
2022-08-10T14:52:43.898Z,2.70
2022-08-10T14:54:50.904Z,2.75
2022-08-10T14:56:53.734Z,2.10
2022-08-10T14:59:06.289Z,4.93
2022-08-10T15:01:09.519Z,10.27
2022-08-10T15:04:01.630Z,2.55
2022-08-10T15:05:39.727Z,3.15
2022-08-10T15:07:48.305Z,1.98
2022-08-10T15:10:04.179Z,3.95
2022-08-10T15:12:14.805Z,3.13
2022-08-10T15:14:43.032Z,2.00
2022-08-10T15:18:58.356Z,2.20
2022-08-10T15:21:02.668Z,2.05
2022-08-10T15:23:30.517Z,4.80
2022-08-10T15:25:36.520Z,6.97
2022-08-10T15:27:54.458Z,1.60
2022-08-10T15:29:58.305Z,2.63
2022-08-10T15:32:18.948Z,4.80
2022-08-10T15:34:39.675Z,2.15
2022-08-10T15:37:36.147Z,2.60
2022-08-10T15:40:12.398Z,1.25
2022-08-10T15:42:05.884Z,6.28
2022-08-10T15:44:07.955Z,2.28
2022-08-10T15:46:19.182Z,1.55
2022-08-10T15:48:22.092Z,2.07
2022-08-10T15:50:32.968Z,1.40
2022-08-10T15:53:00.869Z,1.50
2022-08-10T15:55:44.291Z,4.97
2022-08-10T15:57:44.148Z,2.80
2022-08-10T15:59:53.601Z,1.95
2022-08-10T16:02:24.928Z,7.47
2022-08-10T16:04:33.459Z,2.08
2022-08-10T16:07:00.900Z,3.75
2022-08-10T16:10:22.465Z,4.93
2022-08-10T16:11:38.708Z,2.50
2022-08-10T16:13:59.453Z,1.98
2022-08-10T16:16:05.932Z,4.00
2022-08-10T16:18:11.773Z,3.17
2022-08-10T16:20:13.824Z,1.60
2022-08-10T16:24:39.135Z,3.40
2022-08-10T16:26:45.831Z,2.55
2022-08-10T16:29:00.939Z,3.50
2022-08-10T16:31:05.844Z,5.38
2022-08-10T16:33:10.372Z,4.30
2022-08-10T16:35:13.539Z,3.72
2022-08-10T16:37:16.020Z,2.22
2022-08-10T16:39:59.718Z,5.65
2022-08-10T16:42:14.565Z,6.85
2022-08-10T16:44:18.490Z,4.53
2022-08-10T16:46:21.482Z,5.13
2022-08-10T16:48:50.273Z,3.05
2022-08-10T16:50:58.084Z,8.27
2022-08-10T16:53:02.302Z,1.50
2022-08-10T16:55:17.157Z,3.67
2022-08-10T16:57:26.850Z,5.63
2022-08-10T16:59:34.572Z,4.55
2022-08-10T17:01:37.993Z,2.25
2022-08-10T17:04:06.516Z,4.32
2022-08-10T17:06:14.482Z,5.90
2022-08-10T17:08:17.713Z,2.38
2022-08-10T17:10:20.408Z,4.60
2022-08-10T17:12:27.938Z,3.45
2022-08-10T17:14:30.085Z,4.75
2022-08-10T17:16:40.769Z,3.92
2022-08-10T17:18:46.955Z,4.57
2022-08-10T17:20:49.191Z,8.20
2022-08-10T17:22:57.248Z,2.47
2022-08-10T17:25:14.339Z,3.60
2022-08-10T17:28:04.910Z,4.60
2022-08-10T17:29:57.435Z,4.07
2022-08-10T17:32:20.855Z,5.18
2022-08-10T17:34:29.011Z,3.58
2022-08-10T17:36:35.192Z,2.75
2022-08-10T17:38:37.678Z,2.10
2022-08-10T17:44:01.244Z,3.15
2022-08-10T17:45:46.776Z,2.10
2022-08-10T17:47:52.271Z,2.80
2022-08-10T17:49:58.096Z,2.63
2022-08-10T17:52:02.665Z,3.92
2022-08-10T17:54:09.071Z,3.92
2022-08-10T17:56:11.186Z,4.18
2022-08-10T17:58:17.859Z,4.13
2022-08-10T18:00:19.918Z,2.42
2022-08-10T18:02:26.168Z,2.33
2022-08-10T18:04:28.201Z,8.63
2022-08-10T18:06:30.384Z,3.90
2022-08-10T18:08:39.909Z,10.10
2022-08-10T18:10:41.903Z,2.83
2022-08-10T18:12:51.738Z,5.13
2022-08-10T18:14:54.431Z,4.18
2022-08-10T18:16:56.431Z,3.75
2022-08-10T18:19:11.654Z,7.28
2022-08-10T18:21:19.329Z,3.20
2022-08-10T18:23:26.965Z,3.70
2022-08-10T18:25:34.117Z,5.00
2022-08-10T18:28:01.477Z,6.90
2022-08-10T18:30:04.855Z,8.10
2022-08-10T18:32:07.281Z,9.52
2022-08-10T18:34:12.903Z,7.15
2022-08-10T18:36:15.373Z,12.82
2022-08-10T18:38:17.403Z,4.60
2022-08-10T18:40:19.478Z,5.97
2022-08-10T18:42:39.030Z,5.38
2022-08-10T18:44:44.990Z,11.25
2022-08-10T18:46:53.001Z,5.78
2022-08-10T18:48:58.649Z,8.55
2022-08-10T18:51:05.082Z,5.53
2022-08-10T18:53:16.318Z,4.82
2022-08-10T18:55:27.199Z,6.85
2022-08-10T18:57:58.651Z,2.85
2022-08-10T19:02:34.473Z,6.80
2022-08-10T19:05:33.977Z,15.77
2022-08-10T19:08:49.614Z,6.50
2022-08-10T19:11:03.854Z,3.53
2022-08-10T19:13:40.183Z,8.70
2022-08-10T19:16:15.309Z,5.63
2022-08-10T19:18:44.993Z,3.95
2022-08-10T19:20:54.203Z,5.70
2022-08-10T19:23:15.259Z,7.90
2022-08-10T19:26:41.216Z,6.82
2022-08-10T19:28:16.190Z,4.27
2022-08-10T19:30:18.946Z,9.68
2022-08-10T19:32:33.240Z,3.85
2022-08-10T19:34:56.292Z,7.97
2022-08-10T19:37:07.432Z,3.78
2022-08-10T19:39:26.437Z,13.27
2022-08-10T19:42:31.226Z,9.48
2022-08-10T19:44:52.796Z,8.35
2022-08-10T19:47:05.904Z,3.60
2022-08-10T19:49:31.433Z,5.22
2022-08-10T19:52:10.138Z,6.63
2022-08-10T19:54:25.684Z,15.27
2022-08-10T19:56:35.902Z,4.22
2022-08-10T19:58:57.159Z,6.43
2022-08-10T20:01:02.331Z,9.20
2022-08-10T20:03:16.601Z,11.95
2022-08-10T20:05:32.697Z,4.25
2022-08-10T20:07:51.435Z,6.10
2022-08-10T20:10:00.446Z,3.25
2022-08-10T20:12:34.108Z,5.45
2022-08-10T20:14:56.483Z,2.88
2022-08-10T20:17:05.030Z,4.80
2022-08-10T20:19:12.623Z,5.28
2022-08-10T20:21:39.415Z,6.28
2022-08-10T20:23:55.484Z,7.55
2022-08-10T20:26:02.827Z,4.32
2022-08-10T20:28:21.611Z,6.72
2022-08-10T20:30:28.051Z,3.80
2022-08-10T20:33:02.160Z,5.50
2022-08-10T20:35:23.338Z,5.47
2022-08-10T20:37:41.215Z,4.55
2022-08-10T20:40:32.801Z,2.67
2022-08-10T20:42:50.060Z,3.95
2022-08-10T20:45:22.735Z,5.57
2022-08-10T20:47:53.989Z,4.00
2022-08-10T20:50:21.504Z,5.95
2022-08-10T20:52:24.920Z,4.88
2022-08-10T20:54:42.045Z,3.78
2022-08-10T20:57:54.856Z,13.10
2022-08-10T21:00:05.770Z,8.45
2022-08-10T21:02:29.423Z,3.90
2022-08-10T21:04:53.839Z,4.65
2022-08-10T21:07:50.668Z,12.70
2022-08-10T21:10:34.683Z,5.35
2022-08-10T21:12:55.632Z,3.95
2022-08-10T21:15:22.336Z,9.32
2022-08-10T21:18:29.355Z,7.85
2022-08-10T21:20:54.869Z,5.22
2022-08-10T21:22:56.945Z,4.80
2022-08-10T21:24:58.864Z,3.58
2022-08-10T21:27:18.664Z,3.15
2022-08-10T21:30:09.643Z,5.10
2022-08-10T21:32:50.635Z,8.32
2022-08-10T21:35:20.088Z,4.43
2022-08-10T21:37:40.088Z,3.72
2022-08-10T21:40:00.532Z,6.72
2022-08-10T21:42:59.770Z,8.00
2022-08-10T21:45:58.094Z,9.73
2022-08-10T21:49:08.019Z,6.32
2022-08-10T21:52:01.966Z,4.47
2022-08-10T21:55:58.378Z,4.93
2022-08-10T21:58:27.454Z,11.02
2022-08-10T22:00:49.490Z,7.35
2022-08-10T22:03:10.930Z,7.57
2022-08-10T22:05:38.804Z,12.02
2022-08-10T22:08:00.414Z,8.88
2022-08-10T22:10:25.590Z,5.18
2022-08-10T22:12:52.593Z,8.75
2022-08-10T22:15:13.163Z,6.10
2022-08-10T22:17:59.524Z,4.35
2022-08-10T22:20:27.058Z,4.78
2022-08-10T22:23:19.026Z,6.45
2022-08-10T22:26:35.267Z,4.57
2022-08-10T22:29:11.996Z,2.88
2022-08-10T22:32:32.211Z,7.82
2022-08-10T22:35:01.731Z,4.15
2022-08-10T22:37:31.629Z,3.47
2022-08-10T22:40:25.760Z,5.70
2022-08-10T22:42:59.359Z,8.27
2022-08-10T22:45:35.486Z,6.53
2022-08-10T22:47:56.348Z,3.22
2022-08-10T22:50:03.451Z,10.32
2022-08-10T22:52:17.781Z,5.10
2022-08-10T22:55:12.141Z,5.15
2022-08-10T22:57:33.388Z,4.43
2022-08-10T22:59:35.371Z,5.88
2022-08-10T23:02:08.848Z,7.93
2022-08-10T23:04:35.864Z,9.43
2022-08-10T23:06:38.818Z,4.93
2022-08-10T23:08:51.159Z,6.25
2022-08-10T23:10:53.174Z,4.30
2022-08-10T23:13:08.051Z,5.60
2022-08-10T23:15:49.392Z,4.97
2022-08-10T23:18:13.648Z,10.98
2022-08-10T23:20:17.025Z,5.57
2022-08-10T23:22:22.267Z,4.43
2022-08-10T23:24:54.400Z,9.10
2022-08-10T23:26:57.597Z,5.13
2022-08-10T23:29:09.604Z,3.33
2022-08-10T23:31:15.100Z,5.20
2022-08-10T23:36:28.132Z,5.88
2022-08-10T23:38:10.794Z,6.00
2022-08-10T23:40:15.392Z,4.80
2022-08-10T23:42:20.256Z,5.72
2022-08-10T23:44:22.238Z,4.60
2022-08-10T23:46:25.576Z,8.75
2022-08-10T23:48:34.536Z,4.72
2022-08-10T23:50:36.580Z,4.65
2022-08-10T23:52:38.863Z,4.60
2022-08-10T23:54:48.020Z,4.70
2022-08-10T23:56:52.874Z,3.88
2022-08-10T23:58:55.918Z,5.03
